Date,TemperatureHighF,TemperatureAvgF,TemperatureLowF,DewpointHighF,DewpointAvgF,DewpointLowF,HumidityHigh,HumidityAvg,HumidityLow,PressureMaxIn,PressureMinIn,WindSpeedMaxMPH,WindSpeedAvgMPH,GustSpeedMaxMPH,PrecipitationSumIn
2013-1-1,28.0,22.0,12.6,21.4,14.1,7.0,83,72,54,30.19,30.04,8,3,15,0.01
2013-1-2,25.7,19.4,11.5,20.3,15.3,8.2,90,84,76,30.24,30.11,8,3,12,0.00
2013-1-3,29.5,21.4,11.7,26.0,17.0,6.0,90,83,76,30.20,30.10,11,5,16,0.00
2013-1-4,29.8,26.0,21.3,25.0,20.6,16.9,86,80,67,30.20,30.06,16,8,24,0.00
2013-1-5,32.4,25.3,15.4,31.0,22.6,14.0,94,89,80,30.30,30.04,11,4,17,0.00
2013-1-6,35.1,33.1,31.8,33.0,30.1,26.0,94,89,79,30.28,29.92,15,6,18,0.00
2013-1-7,33.6,30.5,27.6,27.0,25.1,23.0,87,80,75,30.40,30.17,18,8,31,0.00
2013-1-8,35.5,27.2,20.7,29.0,23.8,19.0,94,87,74,30.28,30.18,9,4,14,0.01
2013-1-9,45.6,37.6,26.2,35.0,28.9,25.0,94,72,48,30.46,30.06,22,7,27,0.00
2013-1-10,38.9,33.3,25.6,33.0,28.7,23.7,93,84,68,30.58,30.17,10,4,13,0.08
2013-1-11,56.9,42.8,34.6,52.0,40.9,33.0,98,93,78,30.16,29.77,18,6,22,0.61
2013-1-12,59.2,50.0,44.0,52.9,47.6,42.9,97,92,77,29.93,29.80,12,4,15,0.03
2013-1-13,49.9,37.9,30.1,49.4,36.6,27.8,98,95,91,30.04,29.69,12,5,19,0.62
2013-1-14,30.0,24.1,18.4,27.4,20.0,17.0,92,84,77,30.44,30.04,14,6,22,0.00
2013-1-15,30.5,22.4,14.4,23.0,18.1,13.0,93,84,71,30.46,30.17,7,1,9,0.00
2013-1-16,37.7,29.0,20.0,29.0,20.9,17.0,93,74,45,30.16,29.84,14,5,26,0.00
2013-1-17,37.1,30.2,19.9,30.0,21.6,9.0,86,71,53,30.31,29.99,16,6,23,0.00
2013-1-18,34.2,26.0,16.8,25.0,16.8,9.0,76,68,59,30.44,30.01,21,8,33,0.00
2013-1-19,47.4,42.2,34.1,36.5,32.0,25.0,76,67,58,30.00,29.59,25,12,33,0.00
2013-1-20,43.5,22.5,16.6,36.0,11.8,5.0,75,63,51,30.19,29.57,30,12,42,0.00
2013-1-21,18.0,12.1,3.2,14.0,7.6,-1.0,90,82,69,30.15,29.98,10,5,15,0.00
2013-1-22,10.9,3.5,-4.4,4.0,-2.6,-10.0,85,75,64,30.34,30.14,11,4,15,0.00
2013-1-23,16.9,10.0,2.8,11.0,5.0,-0.4,89,80,67,30.34,30.12,11,3,16,0.00
2013-1-24,22.1,12.8,6.7,10.0,4.7,-1.1,89,71,44,30.64,30.16,10,3,16,0.00
2013-1-25,19.3,16.5,11.3,17.0,12.7,2.5,93,85,67,30.54,30.05,9,3,14,0.00
2013-1-26,25.8,21.6,16.9,19.3,17.4,14.5,93,84,67,30.48,30.09,9,2,12,0.00
2013-1-27,29.1,21.0,12.5,27.4,17.4,10.1,95,86,71,30.51,30.15,13,4,21,0.00
2013-1-28,44.1,37.8,29.2,44.0,37.0,27.8,98,97,94,30.17,29.88,13,4,16,0.44
2013-1-29,56.5,45.2,35.2,54.0,44.5,34.7,98,97,92,30.01,29.46,16,6,23,0.48
2013-1-30,61.2,49.2,31.6,58.0,47.5,27.0,98,93,82,29.45,29.11,23,8,34,0.46
2013-1-31,30.8,21.7,15.2,24.0,16.5,13.0,91,80,67,29.90,29.27,27,12,35,0.00
2013-2-1,17.0,13.3,8.1,13.0,8.5,2.0,91,81,71,30.30,29.90,14,6,20,0.00
2013-2-2,23.4,15.8,9.9,21.0,12.6,7.0,91,87,79,30.24,29.97,12,4,15,0.00
2013-2-3,21.6,12.4,3.2,18.0,8.9,0.9,92,86,73,30.04,29.88,14,3,17,0.00
2013-2-4,22.5,19.2,15.5,20.0,16.9,14.0,93,90,86,30.05,29.89,5,1,7,0.03
2013-2-5,28.1,21.2,11.9,27.0,18.3,10.0,95,89,75,29.98,29.84,13,4,17,0.00
2013-2-6,30.8,22.8,12.6,24.0,16.2,9.0,87,76,64,30.30,29.99,9,3,16,0.00
2013-2-7,41.8,30.7,23.4,31.0,25.2,17.0,91,80,66,30.29,29.83,11,5,18,0.00
2013-2-8,30.4,26.9,18.1,29.1,24.6,15.0,96,91,77,30.35,29.77,18,7,28,0.01
2013-2-9,29.2,21.6,10.6,23.0,18.1,9.0,94,87,71,30.47,30.30,8,3,16,0.02
2013-2-10,40.1,30.2,20.3,38.0,26.6,18.8,95,87,69,30.30,29.69,10,4,15,0.17
2013-2-11,44.3,38.5,31.1,43.1,33.5,26.0,96,83,70,29.88,29.56,27,12,42,0.01
2013-2-12,32.2,30.3,27.1,26.0,24.7,22.0,83,80,73,30.06,29.89,19,6,22,0.00
2013-2-13,39.1,30.3,26.1,29.0,25.0,22.0,92,81,64,29.94,29.73,7,3,11,0.00
2013-2-14,39.7,34.1,28.9,36.0,30.9,27.0,94,88,76,29.85,29.68,18,7,27,0.00
2013-2-15,34.1,27.2,20.9,30.0,18.4,14.0,89,70,58,30.12,29.85,14,5,18,0.00
2013-2-16,25.7,20.1,14.3,20.4,15.3,10.0,91,82,64,30.11,30.00,11,3,17,0.00
2013-2-17,26.5,17.3,9.9,13.3,9.3,6.0,91,72,47,30.23,30.07,13,4,19,0.00
2013-2-18,45.2,32.0,15.7,38.0,23.4,9.8,81,71,58,30.22,29.61,18,7,23,0.01
2013-2-19,43.1,30.1,17.7,41.0,26.6,13.0,95,87,73,29.94,29.42,25,12,35,0.15
2013-2-20,21.8,19.3,15.8,16.0,12.8,9.0,86,76,66,30.26,29.95,18,8,24,0.00
2013-2-21,27.0,22.4,20.7,18.0,16.4,14.0,86,78,68,30.39,30.26,13,5,18,0.00
2013-2-22,33.3,26.8,21.1,33.0,25.1,18.0,97,93,86,30.25,29.89,16,6,19,0.00
2013-2-23,33.0,29.2,23.2,31.0,22.5,18.0,93,76,66,29.94,29.88,12,5,23,0.04
2013-2-24,35.3,28.4,21.3,28.0,23.7,18.0,91,83,68,30.16,29.92,14,4,17,0.01
2013-2-25,40.8,30.8,19.1,30.0,24.0,18.0,95,78,57,30.24,30.09,8,2,29,0.01
2013-2-26,34.6,30.9,27.1,32.0,27.4,21.5,97,87,73,30.12,29.47,15,4,25,0.43
2013-2-27,34.9,33.1,32.5,33.2,32.2,31.7,98,96,92,29.57,29.43,9,3,17,0.36
2013-2-28,36.9,33.1,29.7,34.0,30.9,26.0,97,91,81,29.95,29.55,15,6,19,0.30
2013-3-1,29.6,26.2,24.7,26.0,22.0,20.0,87,84,80,30.11,29.95,17,7,18,0.00
2013-3-2,26.0,24.1,22.0,21.0,19.7,17.6,88,83,78,30.09,30.06,10,4,12,0.00
2013-3-3,31.4,23.3,16.8,18.0,16.0,12.6,86,74,54,30.07,30.01,11,4,13,0.00
2013-3-4,39.2,22.0,14.0,20.0,14.9,11.0,88,75,41,30.17,30.07,4,2,7,0.00
2013-3-5,36.5,27.6,19.7,27.0,22.3,17.0,92,80,64,30.13,29.81,14,6,22,0.00
2013-3-6,40.9,32.2,26.3,31.0,27.2,23.0,89,82,66,30.20,29.83,11,5,20,0.00
2013-3-7,36.3,32.6,28.3,31.0,25.9,20.0,91,77,63,30.40,30.20,8,3,12,0.00
2013-3-8,45.6,30.7,22.4,30.0,22.9,18.0,86,74,54,30.51,30.39,6,2,8,0.00
2013-3-9,43.3,34.7,26.3,34.0,29.6,24.0,93,82,66,30.40,30.03,11,4,17,0.00
2013-3-10,61.6,45.2,35.2,47.0,37.5,32.0,88,76,58,30.02,29.78,16,4,23,0.01
2013-3-11,54.8,48.4,36.8,49.0,43.9,33.0,95,85,66,29.79,29.44,21,10,28,0.25
2013-3-12,36.8,33.6,29.5,33.0,29.6,26.0,92,85,75,29.93,29.67,16,7,22,0.00
2013-3-13,31.9,28.3,24.5,28.0,22.0,16.0,93,78,59,30.21,29.87,18,8,24,0.00
2013-3-14,42.9,31.0,21.5,25.0,20.6,16.0,85,66,44,30.29,30.10,11,4,15,0.00
2013-3-15,41.6,34.9,30.8,35.0,30.4,22.0,96,84,68,30.10,29.85,8,4,13,0.04
2013-3-16,32.8,29.5,27.3,32.0,27.9,26.0,97,93,88,30.06,29.76,10,3,16,0.01
2013-3-17,34.8,26.4,20.5,25.0,19.1,16.0,88,75,55,30.28,30.06,11,5,18,0.01
2013-3-18,34.8,29.8,22.2,34.0,27.2,17.0,97,90,80,30.20,29.57,18,7,21,0.00
2013-3-19,34.8,26.3,22.5,32.0,19.2,15.0,90,74,67,29.95,29.62,23,12,33,0.00
2013-3-20,27.6,24.3,18.1,19.0,16.0,11.0,82,71,60,29.96,29.90,17,8,32,0.00
2013-3-21,31.2,23.4,14.8,24.0,18.6,12.0,89,82,68,29.95,29.88,16,7,21,0.00
2013-3-22,41.2,31.0,25.5,26.0,21.9,18.0,82,70,50,30.02,29.95,11,5,16,0.01
2013-3-23,39.4,30.4,22.9,27.0,23.7,21.0,91,77,59,30.11,30.02,7,3,13,0.00
2013-3-24,37.3,30.7,25.3,28.0,24.4,20.0,92,78,58,30.04,29.62,16,6,23,0.00
2013-3-25,40.1,34.1,29.7,30.0,27.7,24.0,91,78,61,29.92,29.55,22,8,24,0.00
2013-3-26,43.3,36.2,32.1,32.0,29.4,28.0,87,77,58,30.11,29.92,12,6,19,0.00
2013-3-27,46.1,37.7,30.0,31.0,27.5,24.8,89,68,48,30.20,30.11,19,7,21,0.00
2013-3-28,51.8,39.9,30.5,30.4,26.8,23.7,81,61,41,30.26,30.20,11,5,16,0.00
2013-3-29,55.5,38.7,29.2,27.0,24.1,22.0,77,58,29,30.28,30.19,7,3,13,0.00
2013-3-30,54.4,42.6,29.8,33.0,25.1,20.0,82,53,29,30.21,29.93,14,4,19,0.00
2013-3-31,58.3,46.5,37.8,44.0,35.1,31.0,92,67,38,29.92,29.60,15,5,23,0.04
2013-4-1,40.3,32.5,25.8,30.0,17.8,12.0,78,56,39,30.10,29.68,18,8,23,0.00
2013-4-2,41.3,30.8,22.1,21.0,15.8,13.0,85,57,32,30.25,30.09,16,6,24,0.00
2013-4-3,46.9,33.3,24.0,19.0,15.4,12.0,75,51,27,30.42,30.25,12,4,18,0.00
2013-4-4,55.0,39.1,25.6,21.0,17.8,15.0,67,46,24,30.37,29.95,14,5,18,0.00
2013-4-5,50.3,42.8,33.7,31.0,22.0,17.0,81,46,28,30.19,29.93,14,5,19,0.00
2013-4-6,52.1,40.2,29.8,31.0,25.0,20.0,74,57,37,30.24,29.77,17,6,22,0.00
2013-4-7,58.0,52.0,40.9,47.0,38.3,27.0,75,61,37,30.00,29.61,25,9,35,0.00
2013-4-8,67.0,46.8,35.2,57.0,41.6,32.0,94,83,62,30.02,29.69,18,6,31,0.14
2013-4-9,56.8,47.6,42.7,48.6,43.9,40.8,94,87,74,30.07,29.85,11,4,15,0.00
2013-4-10,47.9,43.3,39.6,46.0,42.2,39.0,97,95,92,29.96,29.84,11,4,18,0.25
2013-4-11,39.4,37.8,36.4,39.0,36.9,35.0,97,96,95,29.95,29.61,16,8,25,1.26
2013-4-12,41.3,38.4,35.7,39.0,36.3,34.0,97,92,78,29.77,29.52,13,5,22,0.33
2013-4-13,41.0,38.2,35.8,38.0,32.6,29.0,94,81,65,29.98,29.77,20,7,23,0.04
2013-4-14,49.3,40.2,33.8,37.0,33.1,30.0,87,76,62,30.11,29.93,12,4,22,0.01
2013-4-15,66.6,53.8,38.1,55.0,46.6,34.0,89,77,65,29.96,29.85,18,6,26,0.00
2013-4-16,61.3,53.4,47.2,54.0,44.3,35.0,96,74,46,30.20,29.85,14,4,21,0.38
2013-4-17,57.8,47.2,40.7,43.1,38.3,32.0,95,73,48,30.31,30.01,15,6,19,0.80
2013-4-18,75.7,56.2,43.2,67.0,53.1,41.9,97,90,71,30.02,29.54,32,9,42,0.68
2013-4-19,58.3,44.3,36.8,57.0,39.6,30.0,97,84,70,29.75,29.31,28,11,40,0.31
2013-4-20,39.8,34.5,30.6,32.0,24.4,19.0,93,67,51,30.45,29.75,18,7,23,0.00
2013-4-21,46.7,39.2,24.9,31.4,26.0,16.4,91,61,33,30.63,30.45,14,5,19,0.00
2013-4-22,61.9,43.1,31.1,38.8,31.8,26.5,92,68,27,30.47,30.18,11,3,16,0.00
2013-4-23,69.5,53.1,41.2,54.0,41.7,34.0,96,67,43,30.18,29.77,21,6,32,0.23
2013-4-24,54.6,40.1,34.2,54.0,37.1,28.0,97,89,69,30.13,29.71,14,6,21,0.39
2013-4-25,50.8,40.9,33.7,41.0,32.2,28.0,90,73,44,30.34,30.11,17,6,24,0.03
2013-4-26,58.2,45.3,30.1,41.0,33.9,28.0,93,67,43,30.46,30.33,16,4,21,0.00
2013-4-27,68.5,53.2,37.5,43.0,38.6,34.0,96,63,33,30.36,30.08,10,3,19,0.00
2013-4-28,53.7,51.5,49.2,53.0,46.6,35.0,98,84,57,30.08,29.81,7,2,14,0.15
2013-4-29,68.9,61.2,51.3,56.3,54.1,51.0,98,79,61,29.92,29.82,9,3,14,0.02
2013-4-30,74.2,61.8,52.7,59.2,55.1,51.0,95,80,57,30.04,29.91,20,6,24,0.00
2013-5-1,81.1,65.6,51.9,61.0,55.6,50.4,96,73,45,30.19,30.03,11,4,17,0.00
2013-5-2,78.2,63.7,55.3,57.0,52.3,46.0,85,68,42,30.21,30.09,13,4,19,0.00
2013-5-3,76.6,66.0,55.3,58.0,47.2,35.0,74,53,26,30.10,30.01,15,4,20,0.00
2013-5-4,71.0,62.8,53.9,49.0,42.8,34.0,80,51,28,30.08,30.01,16,6,24,0.00
2013-5-5,74.6,62.8,52.8,47.0,40.5,35.0,71,47,26,30.07,29.98,13,4,18,0.00
2013-5-6,76.7,63.0,49.5,51.0,44.3,39.0,72,52,36,30.03,29.93,15,4,15,0.00
2013-5-7,77.3,67.1,51.0,56.1,50.9,42.0,79,57,41,30.03,29.95,8,3,16,0.00
2013-5-8,81.9,65.2,54.3,56.0,50.2,48.0,85,61,34,29.99,29.90,8,2,14,0.00
2013-5-9,81.3,67.6,51.8,57.0,52.2,48.0,95,62,33,29.94,29.86,6,1,12,0.00
2013-5-10,70.2,58.3,43.1,61.0,54.1,40.0,96,86,68,29.89,29.72,15,4,21,0.18
2013-5-11,60.2,46.9,37.8,48.0,42.1,34.0,94,84,59,29.91,29.74,15,4,24,0.02
2013-5-12,47.7,40.7,34.5,34.0,30.9,26.0,88,69,52,30.10,29.89,18,6,25,0.00
2013-5-13,57.4,43.4,30.2,31.0,26.5,23.0,86,55,27,30.19,30.10,8,2,15,0.00
2013-5-14,77.8,58.9,41.5,56.0,42.9,30.0,73,57,42,30.11,29.70,18,4,22,0.00
2013-5-15,82.3,72.2,58.1,60.0,50.8,43.7,82,50,30,29.75,29.57,15,5,24,0.00
2013-5-16,84.3,67.9,51.0,53.0,46.4,41.0,78,49,26,29.96,29.75,12,2,15,0.00
2013-5-17,76.8,63.0,49.8,51.0,43.8,36.0,73,51,34,30.11,29.98,11,4,15,0.00
2013-5-18,81.2,65.7,53.5,55.0,47.2,37.0,72,53,38,30.11,30.00,8,3,14,0.00
2013-5-19,87.0,69.8,53.8,66.0,56.9,46.0,85,65,44,30.01,29.85,10,2,14,0.00
2013-5-20,89.3,75.1,60.3,71.0,64.4,59.0,96,72,44,29.89,29.73,19,4,24,0.00
2013-5-21,84.1,75.3,65.7,68.0,64.0,60.0,95,70,48,29.77,29.66,14,4,20,0.28
2013-5-22,79.3,67.6,60.5,66.0,63.2,59.0,96,86,54,29.70,29.59,20,4,38,0.08
2013-5-23,64.4,56.3,44.1,60.2,54.5,43.0,97,94,82,30.13,29.67,14,3,21,0.10
2013-5-24,58.8,47.5,37.9,42.0,38.4,35.0,96,73,46,30.34,30.13,11,3,18,0.00
2013-5-25,69.4,52.7,35.3,41.0,37.6,34.0,96,62,31,30.40,30.26,7,2,11,0.00
2013-5-26,72.6,57.7,38.3,44.0,38.0,32.0,95,54,26,30.34,30.19,9,2,10,0.00
2013-5-27,57.0,50.5,44.4,51.0,44.1,35.0,97,80,58,30.24,29.98,11,3,17,0.78
2013-5-28,77.9,64.6,51.5,71.0,61.4,51.0,98,90,76,29.98,29.78,16,4,23,0.13
2013-5-29,82.0,74.9,67.3,69.1,65.9,62.0,90,74,56,29.94,29.75,20,4,25,0.00
2013-5-30,86.0,73.5,66.2,72.0,66.0,61.6,93,78,57,30.01,29.90,18,4,22,0.30
2013-5-31,78.9,72.2,67.9,70.2,67.8,66.0,96,86,69,29.95,29.82,17,5,28,0.30
2013-6-1,76.4,69.1,62.9,68.0,64.6,62.0,97,86,70,29.82,29.65,19,5,21,0.22
2013-6-2,69.7,64.3,54.2,65.0,58.2,47.0,92,80,70,29.94,29.62,13,5,19,0.00
2013-6-3,71.5,57.3,43.4,48.0,42.8,37.6,90,62,36,30.06,29.95,10,2,11,0.00
2013-6-4,78.3,61.6,48.1,51.0,47.1,38.0,90,62,33,30.16,30.06,7,2,10,0.00
2013-6-5,76.9,62.5,51.3,52.0,44.4,33.0,81,53,31,30.14,29.95,6,2,12,0.00
2013-6-6,72.0,61.1,55.1,57.0,49.7,43.0,80,67,54,29.95,29.80,7,3,14,0.00
2013-6-7,61.5,55.7,50.7,54.0,51.5,49.0,94,86,75,29.89,29.83,8,2,11,0.00
2013-6-8,76.8,65.1,54.7,57.6,54.6,53.0,95,71,46,30.03,29.89,4,1,11,0.00
2013-6-9,76.8,64.8,57.0,62.6,57.8,54.0,95,79,54,30.07,29.90,12,3,19,0.00
2013-6-10,73.5,65.6,60.9,69.0,63.6,58.0,98,94,77,29.91,29.69,7,2,10,1.12
2013-6-11,83.1,72.3,63.9,70.0,65.5,63.0,97,81,59,29.86,29.72,7,2,13,0.00
2013-6-12,80.3,72.0,61.5,72.4,66.5,60.0,95,83,70,29.88,29.59,10,1,12,0.03
2013-6-13,78.7,68.3,60.2,66.0,60.4,56.0,97,78,47,29.89,29.46,12,4,29,1.44
2013-6-14,82.0,67.9,57.5,60.0,56.8,54.0,95,71,39,30.04,29.89,9,2,13,0.00
2013-6-15,76.7,66.4,56.1,64.0,59.5,54.0,95,80,57,30.05,29.89,10,2,18,0.00
2013-6-16,82.9,71.8,63.8,69.0,63.4,54.0,96,76,47,29.89,29.75,12,4,16,0.29
2013-6-17,87.6,74.1,60.4,68.9,60.9,55.0,86,66,38,29.88,29.78,8,2,13,0.00
2013-6-18,73.5,65.3,56.4,62.0,54.3,44.0,95,70,42,30.03,29.83,9,3,16,0.04
2013-6-19,76.4,63.0,46.2,55.0,49.7,42.0,90,64,41,30.13,30.03,7,2,12,0.00
2013-6-20,84.1,67.2,51.1,60.0,54.6,50.0,96,67,39,30.18,30.10,9,2,13,0.00
2013-6-21,84.7,73.5,59.4,67.8,60.5,56.0,91,66,44,30.16,30.00,13,3,15,0.00
2013-6-22,90.0,75.7,67.9,77.3,67.5,58.0,89,76,63,30.05,29.92,7,2,12,0.00
2013-6-23,88.4,77.6,66.7,72.2,68.5,65.0,95,75,54,30.02,29.91,13,4,21,0.00
2013-6-24,87.0,74.7,66.2,73.0,67.8,63.8,93,80,58,30.01,29.86,12,3,20,0.03
2013-6-25,86.5,73.5,65.7,75.0,69.1,64.0,97,87,66,29.96,29.76,10,3,29,0.61
2013-6-26,86.3,72.0,65.0,73.0,68.0,64.0,97,88,61,29.86,29.69,18,2,23,1.08
2013-6-27,85.1,71.5,65.6,74.4,68.2,63.6,98,90,66,29.72,29.58,8,1,17,0.59
2013-6-28,78.0,67.7,61.7,71.0,64.7,60.0,98,91,64,29.59,29.47,13,1,16,0.64
2013-6-29,79.8,67.3,60.9,68.0,63.5,60.0,98,88,63,29.69,29.50,7,1,13,0.32
2013-6-30,81.4,69.1,59.6,64.0,59.9,57.8,95,75,47,29.89,29.69,11,2,17,0.00
2013-7-1,67.3,62.5,58.6,61.9,55.9,49.7,93,79,68,30.02,29.89,12,3,15,0.16
2013-7-2,76.1,68.0,58.7,65.3,61.4,55.0,93,80,68,30.03,29.98,6,2,11,0.00
2013-7-3,80.9,66.6,60.3,69.0,62.7,58.9,97,88,61,30.07,29.99,8,2,14,0.00
2013-7-4,78.8,72.1,65.4,69.0,65.8,64.0,97,81,63,30.09,30.02,7,1,13,0.00
2013-7-5,84.8,74.0,67.7,71.2,67.7,64.7,97,82,54,30.07,30.00,5,1,10,0.02
2013-7-6,81.5,72.7,66.1,72.7,69.2,65.0,97,89,70,30.07,29.94,7,1,12,0.16
2013-7-7,81.5,72.3,68.0,72.0,68.7,66.0,97,89,71,30.00,29.92,7,2,12,0.11
2013-7-8,82.7,74.0,67.2,77.0,70.4,66.0,96,89,76,30.00,29.92,9,3,15,0.08
2013-7-9,89.5,76.0,69.5,78.0,72.1,69.0,98,88,67,29.94,29.83,15,2,24,0.05
2013-7-10,85.2,75.6,65.7,78.0,71.3,60.0,97,87,58,29.89,29.73,8,3,23,0.38
2013-7-11,81.5,69.9,60.9,60.0,58.3,55.0,89,69,45,30.02,29.89,10,2,11,0.00
2013-7-12,83.4,69.3,55.9,65.0,59.8,54.0,95,74,45,30.11,30.02,7,1,10,0.00
2013-7-13,84.7,73.4,61.3,68.0,64.2,59.0,94,75,49,30.17,30.09,7,2,11,0.00
2013-7-14,90.6,77.7,65.6,73.1,69.2,63.3,94,76,53,30.20,30.15,5,1,12,0.00
2013-7-15,91.8,76.5,70.3,79.0,71.4,-99.9,97,87,62,30.25,30.16,9,-7,13,0.00
2013-7-16,95.7,85.9,73.5,79.8,76.1,72.0,97,74,55,30.26,30.17,7,1,9,0.64
2013-7-17,96.1,83.2,73.2,80.7,75.6,70.7,93,79,59,30.23,30.09,6,1,11,0.00
2013-7-18,95.3,81.3,71.8,80.8,74.8,70.0,96,82,50,30.11,29.90,9,1,13,0.00
2013-7-19,92.4,84.5,75.2,78.6,74.6,71.0,92,73,56,29.92,29.67,17,6,24,0.00
2013-7-20,91.3,78.6,68.2,76.0,69.1,63.0,97,76,42,29.86,29.66,17,2,27,0.55
2013-7-21,87.9,74.2,63.3,68.0,63.5,56.0,92,71,46,29.95,29.86,5,1,9,0.00
2013-7-22,83.8,73.1,67.6,70.1,67.6,66.0,96,84,62,29.91,29.72,6,1,8,0.04
2013-7-23,84.8,70.0,58.8,74.0,66.3,52.0,96,89,65,29.84,29.63,11,2,18,0.13
2013-7-24,76.6,64.6,55.7,56.0,53.3,50.0,86,68,46,30.01,29.85,8,2,13,0.00
2013-7-25,79.3,65.8,49.2,58.0,54.6,48.0,97,70,42,30.08,30.02,6,1,8,0.00
2013-7-26,77.8,67.3,54.8,63.1,58.9,53.0,95,76,54,30.07,29.87,7,2,14,0.04
2013-7-27,73.4,64.9,54.0,69.0,62.4,52.0,97,91,81,29.88,29.69,9,2,18,0.42
2013-7-28,64.8,57.5,50.3,56.0,52.7,49.0,96,84,67,29.97,29.80,12,3,20,0.00
2013-7-29,73.1,60.8,53.8,60.0,55.5,52.0,94,83,59,30.16,29.96,6,1,10,0.01
2013-7-30,82.4,66.1,52.0,64.1,58.0,50.2,96,77,48,30.21,30.09,4,1,8,0.00
2013-7-31,75.8,68.0,63.7,69.0,64.8,61.0,97,90,72,30.09,29.85,6,1,11,0.19
2013-8-1,82.4,68.7,60.2,67.0,61.8,55.0,97,81,49,29.89,29.83,6,1,14,0.00
2013-8-2,71.6,63.8,54.1,67.0,59.3,53.0,96,85,75,29.90,29.81,11,2,21,0.00
2013-8-3,81.2,70.1,60.3,64.0,59.8,54.0,97,73,41,30.00,29.86,6,1,10,0.00
2013-8-4,76.9,64.9,53.3,58.0,55.2,52.0,94,73,45,30.12,30.00,10,1,15,0.00
2013-8-5,71.5,63.4,52.3,61.0,56.2,50.0,93,78,59,30.09,29.94,5,1,9,0.00
2013-8-6,76.7,68.5,62.2,71.0,64.2,59.0,96,86,73,29.94,29.85,9,2,16,0.15
2013-8-7,82.1,71.2,63.6,74.0,68.1,63.0,98,90,69,29.89,29.78,9,2,15,0.19
2013-8-8,79.9,71.1,65.1,70.0,65.2,61.0,94,82,64,29.96,29.85,8,2,13,0.00
2013-8-9,85.2,71.4,61.3,65.0,60.7,55.0,92,71,43,29.96,29.90,7,1,11,0.00
2013-8-10,81.0,67.7,61.5,65.0,61.6,59.0,94,82,50,30.08,29.97,5,1,7,0.00
2013-8-11,82.4,69.7,55.3,63.0,59.9,54.0,97,73,47,30.08,29.99,7,1,10,0.00
2013-8-12,73.7,65.8,62.9,70.0,63.5,59.0,97,92,78,30.02,29.81,11,1,14,1.67
2013-8-13,68.6,61.6,53.9,64.0,54.4,48.0,98,79,54,30.03,29.79,14,2,16,0.00
2013-8-14,74.9,59.7,49.0,56.0,50.5,46.0,91,73,42,30.14,30.03,7,1,12,0.00
2013-8-15,73.2,60.1,47.6,57.0,52.8,47.0,97,79,51,30.15,30.07,7,1,10,0.00
2013-8-16,82.8,66.9,54.8,62.0,56.0,52.0,94,71,43,30.17,30.09,5,1,8,0.00
2013-8-17,81.0,67.4,52.9,61.0,56.9,51.0,94,72,45,30.23,30.15,8,1,11,0.00
2013-8-18,84.6,70.3,58.3,68.0,60.4,56.0,96,74,44,30.18,30.07,6,1,10,0.00
2013-8-19,86.4,70.4,55.0,66.0,60.9,54.0,97,75,45,30.08,30.00,5,1,9,0.00
2013-8-20,85.9,72.5,58.9,70.0,64.9,58.0,97,79,55,30.11,30.03,6,1,11,0.00
2013-8-21,84.0,74.1,63.3,72.0,67.3,62.0,95,80,59,30.09,29.95,17,3,18,0.00
2013-8-22,82.4,73.3,67.4,71.0,68.4,66.0,95,85,68,30.00,29.92,7,1,9,0.12
2013-8-23,85.9,73.3,59.3,67.0,57.6,47.4,96,63,28,30.16,29.99,7,1,13,0.01
2013-8-24,80.2,68.9,55.6,66.0,59.1,54.0,96,73,51,30.27,30.16,8,1,9,0.00
2013-8-25,86.7,71.3,55.0,68.0,62.5,54.0,98,76,51,30.27,30.11,8,2,13,0.00
2013-8-26,86.7,75.9,64.1,74.0,68.3,61.0,94,78,62,30.14,29.93,7,2,14,0.03
2013-8-27,83.4,75.3,69.6,78.0,72.8,69.0,97,92,82,29.96,29.79,9,2,19,0.91
2013-8-28,83.6,76.8,70.8,76.0,73.2,69.0,97,89,75,29.95,29.73,11,2,16,0.15
2013-8-29,88.3,75.5,64.6,75.0,69.4,63.7,98,83,59,30.03,29.95,6,1,9,0.01
2013-8-30,87.4,73.8,62.2,73.7,68.0,61.1,98,83,60,29.96,29.70,12,2,16,0.33
2013-8-31,87.3,76.1,69.5,74.0,69.3,66.6,97,81,58,29.79,29.68,7,1,9,0.20
2013-9-1,83.2,71.9,67.6,73.0,68.2,65.4,94,88,69,29.80,29.67,6,1,9,0.00
2013-9-2,78.4,69.7,60.4,70.0,62.9,52.0,94,80,59,29.88,29.68,9,2,16,0.00
2013-9-3,78.7,64.4,57.3,61.0,55.4,52.0,86,74,49,30.00,29.88,8,1,13,0.00
2013-9-4,81.8,66.9,53.6,64.0,59.2,52.0,96,78,54,30.07,29.98,9,2,13,0.00
2013-9-5,74.7,63.4,52.9,62.0,52.5,46.0,92,70,41,30.23,30.04,7,1,12,0.00
2013-9-6,76.6,61.6,46.8,57.0,51.1,45.0,96,72,43,30.26,30.06,5,1,8,0.00
2013-9-7,82.3,67.6,56.2,70.0,61.4,50.0,92,81,64,30.05,29.86,9,1,12,0.01
2013-9-8,76.7,69.0,57.6,67.0,61.2,52.0,94,77,52,30.04,29.89,9,2,17,0.00
2013-9-9,80.0,63.7,53.9,73.0,61.2,51.0,98,92,76,30.03,29.87,5,1,9,0.43
2013-9-10,95.8,80.5,67.9,76.0,71.2,67.0,97,76,48,29.96,29.86,11,3,13,0.00
2013-9-11,92.7,77.2,68.3,77.0,69.9,66.0,96,80,57,29.98,29.84,10,2,17,0.07
2013-9-12,80.9,68.9,55.6,68.0,61.6,50.0,97,80,45,29.92,29.80,12,2,22,0.01
2013-9-13,61.5,53.8,42.4,50.0,45.8,41.0,93,75,54,30.11,29.92,12,2,18,0.00
2013-9-14,71.7,53.1,38.0,49.0,42.8,37.0,97,73,39,30.18,30.08,5,1,8,0.00
2013-9-15,65.9,54.6,45.4,55.0,49.9,43.0,96,85,60,30.11,30.03,6,1,9,0.07
2013-9-16,65.1,56.2,47.4,54.0,50.3,43.0,97,82,55,30.35,30.11,10,2,15,0.00
2013-9-17,68.4,52.9,38.3,53.0,45.0,37.0,97,77,44,30.38,30.21,8,1,14,0.01
2013-9-18,75.3,60.3,47.9,59.0,53.1,44.0,96,79,50,30.20,30.01,8,1,13,0.00
2013-9-19,79.4,66.3,56.2,69.0,63.1,55.0,98,90,70,30.02,29.88,11,2,17,0.00
2013-9-20,80.5,70.9,65.7,73.0,68.4,65.0,98,92,73,29.88,29.70,13,3,22,0.65
2013-9-21,69.3,61.8,55.5,65.0,55.8,49.0,98,82,53,29.84,29.64,9,2,14,0.04
2013-9-22,62.7,53.3,44.3,49.0,44.0,41.0,90,71,52,30.06,29.84,10,2,13,0.00
2013-9-23,64.5,52.0,43.3,48.0,44.4,41.0,94,77,52,30.17,30.06,6,1,9,0.00
2013-9-24,69.1,54.6,42.3,53.0,48.0,41.0,97,81,53,30.13,29.98,7,1,11,0.00
2013-9-25,73.1,58.5,47.6,58.0,51.3,46.0,97,79,54,29.98,29.91,9,2,9,0.01
2013-9-26,79.0,62.0,47.0,57.0,50.3,46.0,96,70,36,30.11,29.97,8,1,11,0.00
2013-9-27,77.1,60.5,45.4,62.0,53.6,45.0,97,80,52,30.20,30.11,6,1,13,0.00
2013-9-28,77.1,63.1,53.2,61.0,56.0,52.0,98,80,48,30.17,29.98,9,2,13,0.01
2013-9-29,62.4,59.5,57.1,61.0,57.5,53.0,97,93,83,29.99,29.93,5,1,9,0.12
2013-9-30,69.9,61.6,52.9,59.0,56.0,51.0,97,83,60,29.99,29.90,9,1,14,0.00
2013-10-1,69.6,59.1,48.2,63.0,56.8,47.0,98,92,79,30.00,29.92,11,2,18,0.01
2013-10-2,87.2,68.3,57.1,62.0,55.1,48.0,98,68,29,30.05,29.93,5,1,8,0.00
2013-10-3,74.9,65.2,55.6,69.0,61.2,52.0,95,87,78,30.02,29.89,11,2,15,0.00
2013-10-4,79.6,69.7,64.0,70.0,65.5,62.0,95,87,65,29.98,29.91,7,2,9,0.01
2013-10-5,73.3,68.4,63.8,70.0,66.3,63.0,98,93,84,29.99,29.82,11,2,12,0.20
2013-10-6,69.3,64.2,54.7,68.0,62.9,54.0,98,95,87,29.81,29.59,12,4,26,0.30
2013-10-7,61.3,52.4,42.9,54.0,47.0,41.0,97,82,63,30.11,29.66,16,4,23,0.00
2013-10-8,68.8,50.9,41.1,51.1,44.7,40.0,98,82,43,30.27,30.11,8,1,15,0.01
2013-10-9,70.7,56.3,43.8,55.0,47.2,43.0,98,75,42,30.30,30.20,10,2,14,0.00
2013-10-10,73.9,57.5,44.7,55.0,46.6,41.0,98,72,33,30.20,30.10,7,1,10,0.01
2013-10-11,76.4,57.9,42.7,56.0,49.3,41.0,96,76,45,30.12,30.04,5,1,9,0.01
2013-10-12,77.7,62.5,50.7,60.0,53.9,49.0,98,78,36,30.08,30.00,9,2,13,0.01
2013-10-13,70.4,60.4,49.9,59.0,48.0,39.0,97,68,34,30.31,30.05,8,2,14,0.00
2013-10-14,67.5,53.2,43.6,46.0,43.4,42.0,94,72,44,30.38,30.24,5,1,11,0.00
2013-10-15,63.4,54.8,42.3,61.0,52.3,41.0,97,91,82,30.23,29.82,10,3,15,0.03
2013-10-16,62.3,55.8,51.1,61.0,51.0,46.0,97,84,65,29.89,29.78,13,4,17,0.01
2013-10-17,51.0,48.4,44.2,49.0,46.4,43.0,97,93,86,29.88,29.75,10,3,15,0.17
2013-10-18,63.1,49.8,39.3,48.0,43.5,39.0,97,81,48,29.91,29.83,11,3,18,0.02
2013-10-19,48.4,43.2,37.9,45.4,40.5,36.0,96,90,78,29.90,29.74,12,2,12,0.14
2013-10-20,60.8,46.9,37.9,45.0,39.9,36.0,93,79,51,29.91,29.83,14,4,19,0.02
2013-10-21,54.7,49.4,39.8,48.0,43.7,35.0,92,81,67,29.85,29.79,12,5,23,0.02
2013-10-22,50.4,40.5,30.5,36.0,32.3,28.0,90,74,51,29.93,29.84,9,3,17,0.00
2013-10-23,48.5,38.5,32.2,37.0,32.6,27.0,96,81,47,29.93,29.81,9,2,13,0.01
2013-10-24,47.5,37.2,31.2,35.0,31.3,29.0,95,81,52,30.18,29.92,7,3,14,0.00
2013-10-25,47.0,38.1,31.4,38.0,32.0,28.0,96,80,59,30.33,30.12,10,4,15,0.01
2013-10-26,48.8,42.1,35.6,40.0,32.9,28.0,94,71,59,30.13,29.79,19,7,28,0.09
2013-10-27,53.7,41.4,30.6,38.0,32.7,29.0,94,73,46,30.07,29.98,10,2,18,0.00
2013-10-28,52.6,42.1,32.3,42.0,35.4,29.0,90,77,64,30.38,30.03,7,2,13,0.00
2013-10-29,53.5,43.9,35.2,41.0,36.3,31.0,88,75,61,30.43,30.24,6,2,9,0.00
2013-10-30,64.0,48.8,36.2,51.0,42.5,35.0,97,81,52,30.22,29.95,7,2,13,0.18
2013-10-31,62.3,59.3,52.4,61.0,58.2,51.0,98,96,93,29.95,29.14,25,8,29,1.21
2013-11-1,60.4,48.3,44.3,59.0,44.9,41.0,96,88,79,29.65,29.12,19,6,31,0.04
2013-11-2,47.1,43.9,36.4,44.0,41.7,34.0,97,92,78,30.09,29.64,8,2,18,0.16
2013-11-3,46.2,37.7,31.1,38.0,32.9,30.0,96,84,64,30.45,30.09,6,2,10,0.01
2013-11-4,48.3,40.5,32.3,37.0,32.9,28.0,94,76,45,30.47,30.30,13,4,17,0.00
2013-11-5,53.6,47.5,40.7,49.0,43.6,35.0,92,86,77,30.36,30.15,7,3,12,0.00
2013-11-6,55.6,51.5,41.9,53.0,47.3,40.0,95,86,70,30.15,29.77,19,8,30,0.07
2013-11-7,46.3,39.9,34.5,40.0,32.4,27.0,93,76,52,30.13,29.97,15,5,24,0.01
2013-11-8,46.6,37.4,31.2,33.0,29.7,26.8,93,75,51,30.29,30.12,7,3,12,0.00
2013-11-9,56.5,46.9,35.5,44.0,37.0,30.7,85,69,58,30.17,29.80,21,8,27,0.00
2013-11-10,48.3,42.4,34.0,40.0,31.8,29.0,83,66,56,30.26,29.89,14,6,23,0.00
2013-11-11,44.5,37.0,26.9,39.0,32.7,24.0,96,85,73,30.31,30.02,13,6,20,0.13
2013-11-12,33.0,27.0,22.4,26.0,21.2,17.0,92,79,61,30.56,30.31,12,5,22,0.00
2013-11-13,39.5,30.8,19.9,25.0,18.5,12.0,91,64,33,30.56,30.19,20,7,27,0.00
2013-11-14,49.9,38.4,28.2,28.0,24.0,20.0,73,57,40,30.20,30.00,17,8,24,0.00
2013-11-15,50.1,42.1,36.1,32.0,29.1,25.0,73,61,48,30.07,30.00,14,5,18,0.00
2013-11-16,57.3,46.1,34.5,53.0,42.2,31.0,93,86,73,30.10,29.80,17,6,24,0.00
2013-11-17,62.9,58.6,53.7,60.0,56.2,46.0,96,91,69,29.79,29.23,31,12,46,0.69
2013-11-18,40.0,36.0,34.2,32.0,27.6,25.0,75,72,69,30.13,29.80,18,10,30,0.00
2013-11-19,45.0,35.1,28.0,26.0,24.3,22.0,85,66,43,30.41,30.13,8,3,14,0.00
2013-11-20,44.2,34.7,26.4,33.0,27.5,24.0,92,76,53,30.45,30.24,14,4,19,0.00
2013-11-21,46.1,42.4,38.5,44.0,38.4,30.0,97,86,70,30.29,30.17,10,4,16,0.32
2013-11-22,45.0,39.4,27.6,45.0,36.9,25.0,98,91,75,30.37,30.13,17,4,19,0.36
2013-11-23,29.3,24.4,17.7,25.0,17.2,9.0,92,75,48,30.55,30.29,14,6,23,0.00
2013-11-24,25.7,19.0,13.1,16.0,11.6,8.0,87,73,53,30.64,30.45,12,5,17,0.00
2013-11-25,30.2,24.9,18.3,25.0,17.3,12.0,89,73,59,30.44,30.12,20,9,26,0.00
2013-11-26,33.9,30.9,28.5,29.0,27.1,24.0,91,86,80,30.12,29.95,10,4,16,0.00
2013-11-27,28.4,23.7,18.1,24.0,15.6,12.0,86,72,55,30.21,29.93,18,7,24,0.00
2013-11-28,27.2,23.2,15.9,22.0,16.9,12.0,91,77,66,30.43,30.22,10,2,28,0.00
2013-11-29,37.1,26.3,19.0,24.1,19.8,15.7,90,78,49,30.67,30.43,6,1,10,0.00
2013-11-30,44.6,33.8,26.8,30.2,26.0,21.7,84,74,56,30.55,30.10,10,5,16,0.00
2013-12-1,45.8,35.2,29.9,36.6,30.5,26.2,95,83,67,30.10,29.98,6,2,10,0.00
2013-12-2,36.8,32.2,30.6,31.6,30.3,29.0,95,93,73,29.99,29.94,2,1,5,0.00
2013-12-4,48.7,46.7,44.9,45.9,44.6,43.3,94,92,90,29.86,29.80,9,4,9,0.00
2013-12-5,44.9,38.0,33.2,39.4,30.9,24.6,85,75,69,30.05,29.73,24,8,24,0.01
2013-12-6,24.3,22.8,20.3,16.6,15.4,13.2,77,73,70,30.40,30.28,6,4,9,0.00
2013-12-7,26.0,18.9,13.9,14.7,11.7,9.6,86,74,55,30.63,30.41,7,3,12,0.00
2013-12-8,28.2,18.9,11.8,27.0,15.1,8.4,95,85,74,30.61,29.99,8,4,14,0.00
2013-12-9,28.3,25.2,18.5,27.3,21.3,13.4,96,85,73,30.12,29.89,14,7,20,0.00
2013-12-10,21.3,17.0,9.3,15.1,10.0,1.5,85,74,52,30.21,29.98,16,7,24,0.00
2013-12-11,20.4,18.1,16.5,16.8,15.2,13.6,89,88,85,30.33,30.30,7,5,13,0.00
2013-12-12,20.5,15.0,8.5,15.5,6.9,2.2,86,71,50,30.44,30.21,12,7,21,0.00
2013-12-13,31.5,24.2,19.6,23.8,19.1,14.7,84,80,71,30.26,30.17,7,3,13,0.00
2013-12-14,23.9,19.5,18.4,19.2,17.2,16.4,94,91,82,30.25,29.85,9,7,17,0.00
2013-12-15,24.0,19.8,14.9,22.5,16.5,11.6,94,87,76,30.04,29.83,12,7,21,0.00
2013-12-16,20.8,12.6,2.6,15.9,9.7,-0.1,92,88,78,30.20,30.02,4,2,10,0.01
2013-12-17,26.0,20.9,13.1,23.5,18.7,11.2,94,91,87,30.02,29.91,11,4,17,0.00
2013-12-18,30.5,25.1,20.4,24.7,20.5,15.6,95,83,70,30.14,29.91,11,5,18,0.01
2013-12-19,39.8,30.6,22.9,33.9,25.3,16.3,91,80,74,30.00,29.87,6,4,11,0.05
2013-12-20,41.9,37.4,34.3,41.4,36.6,33.8,98,97,91,29.89,29.71,5,2,8,0.30
2013-12-21,37.5,34.4,32.9,37.0,33.9,32.4,98,98,98,29.85,29.70,5,2,9,0.08
2013-12-22,37.9,35.5,33.8,35.2,33.3,31.6,95,92,87,29.95,29.77,8,4,17,0.25
2013-12-23,33.7,28.3,19.1,31.6,23.9,13.7,95,83,70,30.31,29.95,11,5,17,0.00
2013-12-24,21.8,15.5,10.4,13.5,10.0,6.5,86,79,67,30.55,30.30,8,4,15,0.00
2013-12-25,24.4,19.2,11.2,22.7,16.4,7.8,93,88,81,30.52,30.13,11,5,24,0.00
2013-12-26,28.0,25.7,23.7,25.1,21.7,18.7,95,85,72,30.29,30.05,10,5,16,0.00
2013-12-27,39.2,33.1,25.2,32.7,29.0,22.4,90,85,75,30.32,30.08,11,4,19,0.00
2013-12-28,46.8,39.0,32.5,37.9,33.5,29.2,89,81,69,30.11,29.89,11,6,19,0.00
2013-12-29,43.3,34.3,22.9,34.6,29.3,17.7,93,82,70,30.00,29.68,10,5,15,0.00
2013-12-30,22.6,19.4,16.0,17.6,11.6,6.6,83,71,65,30.27,30.00,9,3,15,0.00
2013-12-31,20.2,16.4,13.9,16.1,11.9,9.4,90,82,67,30.34,30.08,10,5,16,0.00
2014-1-1,15.5,13.8,12.4,13.0,11.4,10.3,92,90,87,30.40,30.22,6,3,12,0.00
2014-1-2,14.9,13.1,10.4,13.0,11.1,8.0,92,91,89,30.22,30.08,14,8,21,0.00